»·PEaware :: AAL1416 KJFK-TXKF

AAL1416 :: KJFK-TXKF

FLIGHT INFORMATION

Flight Status: Arrived
Operator:
American Airlines
More flights by this operator :: More flights under this callsign
Pilot: Cullen Chandler (7783)
Aircraft: BOEING 737-800
(B738)
More flights by this aircraft type
Origin: KJFK Kennedy Intl
United States
Destination: TXKF Bermuda Intl
Bermuda
More flights between these airports :: More routes between these airports
Route: SHIPP JETZZ BLUUU DUMPR ISLES KINGG KINER L461 BOVIC MOMOM1
File this flight plan on PilotEdge
Remarks:
Altitude:
(Current/Filed)
35,000ft
Speed:
(Current/Filed)
450kts
Departed: 13-Jul-17 04:13 PM
Arrived: 13-Jul-17 05:53 PM
Distance/Time
Traveled:
661nm/1:40
Distance/Time
To Go:
Arrived

Flight Plot

Page will automatically refresh every two minutes.

Flight plan parsing failed; only flown route is shown


Map Options




Map Legend


Flown Route
Filed Route
Departure Airport
Arrival Airport
Navaid (VOR, NDB)
Fix

Horizontal Profiles

Position Reports

Time Latitude Longitude Heading Altitude Ground
Speed
13-Jul-17 15:51 40.650422 -73.790761 329 19ft 0kts
13-Jul-17 15:52 40.650422 -73.790761 329 19ft 0kts
13-Jul-17 15:53 40.650422 -73.790761 329 19ft 0kts
13-Jul-17 15:54 40.650422 -73.790761 329 19ft 0kts
13-Jul-17 15:55 40.650422 -73.790761 329 19ft 0kts
13-Jul-17 15:56 40.650422 -73.790761 329 19ft 0kts
13-Jul-17 15:57 40.650422 -73.790761 329 19ft 0kts
13-Jul-17 15:58 40.650422 -73.790761 329 19ft 0kts
13-Jul-17 15:59 40.650422 -73.790761 329 19ft 0kts
13-Jul-17 16:00 40.650422 -73.790761 329 19ft 0kts
13-Jul-17 16:01 40.650422 -73.790761 329 19ft 0kts
13-Jul-17 16:02 40.650422 -73.790761 329 19ft 0kts
13-Jul-17 16:03 40.650422 -73.790761 329 19ft 0kts
13-Jul-17 16:04 40.650422 -73.790761 329 19ft 0kts
13-Jul-17 16:05 40.650407 -73.790749 329 19ft 0kts
13-Jul-17 16:06 40.649838 -73.790121 286 19ft 0kts
13-Jul-17 16:07 40.649837 -73.790127 280 19ft 1kts
13-Jul-17 16:08 40.649230 -73.791900 238 19ft 10kts
13-Jul-17 16:09 40.648073 -73.794570 242 19ft 7kts
13-Jul-17 16:10 40.646393 -73.795608 145 19ft 13kts
13-Jul-17 16:11 40.641565 -73.794965 179 19ft 19kts
13-Jul-17 16:12 40.638165 -73.789435 121 20ft 21kts
13-Jul-17 16:13 40.634971 -73.782396 121 19ft 23kts
13-Jul-17 16:14 40.631486 -73.774715 122 19ft 23kts
13-Jul-17 16:15 40.628152 -73.772271 284 19ft 14kts
13-Jul-17 16:16 40.642676 -73.804740 300 813ft 175kts
13-Jul-17 16:17 40.658035 -73.869788 251 3153ft 218kts
13-Jul-17 16:18 40.610688 -73.933787 213 5986ft 266kts
13-Jul-17 16:19 40.536123 -73.925255 167 9266ft 297kts
13-Jul-17 16:20 40.481704 -73.837940 110 11645ft 354kts
13-Jul-17 16:21 40.449734 -73.713498 109 14571ft 369kts
13-Jul-17 16:22 40.416554 -73.584202 109 17267ft 385kts
13-Jul-17 16:23 40.381785 -73.449386 109 19727ft 399kts
13-Jul-17 16:24 40.346234 -73.312075 109 21896ft 414kts
13-Jul-17 16:25 40.294517 -73.177581 124 23848ft 425kts
13-Jul-17 16:26 40.229600 -73.047025 125 25702ft 436kts
13-Jul-17 16:27 40.162945 -72.913950 124 27578ft 441kts
13-Jul-17 16:28 40.096779 -72.781147 122 29510ft 436kts
13-Jul-17 16:29 40.034954 -72.647112 122 31068ft 435kts
13-Jul-17 16:30 39.974533 -72.511640 120 32386ft 434kts
13-Jul-17 16:31 39.914949 -72.375941 119 33555ft 434kts
13-Jul-17 16:32 39.856397 -72.243142 120 34534ft 433kts
13-Jul-17 16:33 39.796593 -72.108079 120 35105ft 440kts
13-Jul-17 16:34 39.733685 -71.967793 121 35122ft 464kts
13-Jul-17 16:35 39.665447 -71.821087 121 35124ft 490kts
13-Jul-17 16:36 39.594560 -71.669358 121 35105ft 497kts
13-Jul-17 16:37 39.523265 -71.517548 121 35105ft 497kts
13-Jul-17 16:38 39.451598 -71.365685 122 35107ft 497kts
13-Jul-17 16:39 39.350129 -71.256584 152 35105ft 488kts
13-Jul-17 16:40 39.234098 -71.168217 153 35102ft 487kts
13-Jul-17 16:41 39.117311 -71.080593 153 35103ft 487kts
13-Jul-17 16:42 39.000869 -70.993638 153 35104ft 487kts
13-Jul-17 16:43 38.884820 -70.907301 153 35103ft 488kts
13-Jul-17 16:44 38.768122 -70.820793 153 35103ft 487kts
13-Jul-17 16:45 38.651290 -70.734536 154 35104ft 488kts
13-Jul-17 16:46 38.533900 -70.648190 154 35105ft 488kts
13-Jul-17 16:47 38.417221 -70.562695 154 35083ft 488kts
13-Jul-17 16:48 38.299909 -70.477046 154 35081ft 488kts
13-Jul-17 16:49 38.182915 -70.391956 154 35082ft 488kts
13-Jul-17 16:50 38.079923 -70.279164 136 35078ft 497kts
13-Jul-17 16:51 37.985936 -70.151408 135 35076ft 497kts
13-Jul-17 16:52 37.892127 -70.024125 135 35076ft 497kts
13-Jul-17 16:53 37.797923 -69.896798 135 35075ft 497kts
13-Jul-17 16:54 37.703383 -69.769515 136 35077ft 497kts
13-Jul-17 16:55 37.609009 -69.643003 136 35078ft 498kts
13-Jul-17 16:56 37.514313 -69.516529 136 35080ft 498kts
13-Jul-17 16:57 37.419331 -69.390159 136 35082ft 498kts
13-Jul-17 16:58 37.324488 -69.264511 136 35073ft 498kts
13-Jul-17 16:59 37.229220 -69.138801 136 35074ft 498kts
13-Jul-17 17:00 37.134207 -69.013856 137 35076ft 498kts
13-Jul-17 17:01 37.038836 -68.889000 137 35078ft 498kts
13-Jul-17 17:02 36.943087 -68.764108 137 35080ft 498kts
13-Jul-17 17:03 36.847337 -68.639695 137 35078ft 498kts
13-Jul-17 17:04 36.751542 -68.515668 137 35079ft 498kts
13-Jul-17 17:05 36.655520 -68.391887 137 35081ft 498kts
13-Jul-17 17:06 36.558970 -68.273386 145 35076ft 494kts
13-Jul-17 17:07 36.451717 -68.167699 146 35097ft 494kts
13-Jul-17 17:08 36.344532 -68.063304 146 35171ft 493kts
13-Jul-17 17:09 36.236772 -67.958788 146 35314ft 493kts
13-Jul-17 17:10 36.129379 -67.856892 139 35323ft 481kts
13-Jul-17 17:11 36.024950 -67.754628 139 35323ft 481kts
13-Jul-17 17:12 35.919792 -67.653474 139 35324ft 480kts
13-Jul-17 17:13 35.814540 -67.552776 139 35316ft 480kts
13-Jul-17 17:14 35.709116 -67.452271 139 35317ft 479kts
13-Jul-17 17:15 35.604036 -67.352427 139 35318ft 479kts
13-Jul-17 17:16 35.499201 -67.253168 140 35318ft 478kts
13-Jul-17 17:17 35.394094 -67.153998 140 35319ft 478kts
13-Jul-17 17:18 35.288731 -67.054906 140 35320ft 477kts
13-Jul-17 17:19 35.183828 -66.956623 139 35326ft 474kts
13-Jul-17 17:20 35.086037 -66.865106 139 35297ft 416kts
13-Jul-17 17:21 34.991894 -66.777288 138 35303ft 440kts
13-Jul-17 17:22 34.891550 -66.684195 139 35343ft 468kts
13-Jul-17 17:23 34.782404 -66.594300 143 35316ft 475kts
13-Jul-17 17:24 34.672652 -66.506335 143 35317ft 475kts
13-Jul-17 17:25 34.562812 -66.418537 143 35317ft 474kts
13-Jul-17 17:26 34.453006 -66.331056 144 35319ft 474kts
13-Jul-17 17:27 34.343001 -66.243696 144 35320ft 473kts
13-Jul-17 17:28 34.233425 -66.156956 144 35321ft 473kts
13-Jul-17 17:29 34.124126 -66.070694 144 34335ft 466kts
13-Jul-17 17:30 34.014840 -65.984621 144 32172ft 471kts
13-Jul-17 17:31 33.911565 -65.903807 144 30086ft 417kts
13-Jul-17 17:32 33.819537 -65.831703 144 28300ft 409kts
13-Jul-17 17:33 33.724336 -65.757451 144 26411ft 409kts
13-Jul-17 17:34 33.629982 -65.684064 145 24536ft 398kts
13-Jul-17 17:35 33.538790 -65.613334 145 22733ft 385kts
13-Jul-17 17:36 33.450514 -65.545014 145 20987ft 373kts
13-Jul-17 17:37 33.364798 -65.478817 145 19292ft 362kts
13-Jul-17 17:38 33.281234 -65.414427 145 17330ft 356kts
13-Jul-17 17:39 33.200893 -65.352689 145 15732ft 337kts
13-Jul-17 17:40 33.123289 -65.293154 146 14201ft 329kts
13-Jul-17 17:41 33.045398 -65.240252 159 12716ft 321kts
13-Jul-17 17:42 32.961907 -65.205465 160 11236ft 314kts
13-Jul-17 17:43 32.881221 -65.172575 160 9812ft 297kts
13-Jul-17 17:44 32.808037 -65.142887 160 9317ft 270kts
13-Jul-17 17:45 32.736611 -65.113963 160 9118ft 271kts
13-Jul-17 17:46 32.665606 -65.085235 159 8930ft 270kts
13-Jul-17 17:47 32.594635 -65.056601 160 7731ft 265kts
13-Jul-17 17:48 32.525240 -65.028644 160 6519ft 261kts
13-Jul-17 17:49 32.460836 -65.002768 159 5361ft 227kts
13-Jul-17 17:50 32.416086 -64.965998 103 4339ft 196kts
13-Jul-17 17:51 32.404120 -64.904692 102 3435ft 177kts
13-Jul-17 17:52 32.394010 -64.849273 102 2738ft 171kts
13-Jul-17 17:53 32.383941 -64.794115 103 2071ft 171kts
13-Jul-17 17:54 32.374501 -64.739540 102 941ft 162kts
13-Jul-17 17:55 32.365974 -64.689785 102 26ft 146kts
13-Jul-17 17:56 32.364577 -64.678229 14 20ft 17kts
13-Jul-17 17:57 32.366209 -64.683159 280 20ft 17kts
13-Jul-17 17:58 32.366983 -64.689303 249 20ft 18kts
13-Jul-17 17:59 32.364886 -64.695320 247 19ft 22kts
13-Jul-17 18:00 32.361692 -64.701195 232 20ft 13kts
13-Jul-17 18:01 32.360571 -64.701861 151 20ft 0kts
13-Jul-17 18:02 32.360567 -64.701859 151 20ft 0kts

Navigation Log

Ident Type
Flight plan parsing failed, navigation log unavailable